createdAt,value
2019-05-22T04:01:48.093Z,94.40
2019-05-22T04:04:21.402Z,94.70
2019-05-22T04:06:52.428Z,94.30
2019-05-22T04:09:24.423Z,95.00
2019-05-22T04:11:55.186Z,94.40
2019-05-22T04:14:34.458Z,94.60
2019-05-22T04:17:05.733Z,94.50
2019-05-22T04:19:48.312Z,94.50
2019-05-22T04:22:09.442Z,94.60
2019-05-22T04:24:42.558Z,94.40
2019-05-22T04:27:12.941Z,94.60
2019-05-22T04:29:43.074Z,94.60
2019-05-22T04:32:15.894Z,94.60
2019-05-22T04:34:46.503Z,94.90
2019-05-22T04:37:17.425Z,94.50
2019-05-22T04:39:49.453Z,94.90
2019-05-22T04:42:20.665Z,94.60
2019-05-22T04:45:12.258Z,94.50
2019-05-22T04:47:55.195Z,94.70
2019-05-22T04:50:25.512Z,94.80
2019-05-22T04:52:56.337Z,94.60
2019-05-22T04:55:27.014Z,94.80
2019-05-22T04:57:57.452Z,94.80
2019-05-22T05:00:30.116Z,94.60
2019-05-22T05:03:00.711Z,95.00
2019-05-22T05:05:35.552Z,94.80
2019-05-22T05:08:05.627Z,94.80
2019-05-22T05:10:35.983Z,94.80
2019-05-22T05:13:05.930Z,94.80
2019-05-22T05:15:37.301Z,94.90
2019-05-22T05:18:07.548Z,94.90
2019-05-22T05:20:38.051Z,95.00
2019-05-22T05:23:08.003Z,94.90
2019-05-22T05:25:38.419Z,94.60
2019-05-22T05:28:08.661Z,94.80
2019-05-22T05:30:39.158Z,94.90
2019-05-22T05:33:11.161Z,94.90
2019-05-22T05:35:41.553Z,94.70
2019-05-22T05:38:12.678Z,94.80
2019-05-22T05:40:43.609Z,94.70
2019-05-22T05:43:15.498Z,94.80
2019-05-22T05:45:47.905Z,94.80
2019-05-22T05:48:20.894Z,94.60
2019-05-22T05:51:08.906Z,94.50
2019-05-22T05:54:01.085Z,94.60
2019-05-22T05:56:33.755Z,95.00
2019-05-22T05:59:06.888Z,94.60
2019-05-22T06:01:40.601Z,94.90
2019-05-22T06:04:11.878Z,94.90
2019-05-22T06:07:00.078Z,94.80
2019-05-22T06:09:29.011Z,94.70
2019-05-22T06:12:05.181Z,94.50
2019-05-22T06:14:35.506Z,94.30
2019-05-22T06:17:25.197Z,94.50
2019-05-22T06:19:59.322Z,94.60
2019-05-22T06:22:29.497Z,94.40
2019-05-22T06:25:04.598Z,94.00
2019-05-22T06:27:42.873Z,94.40
2019-05-22T06:30:21.725Z,94.00
2019-05-22T06:33:08.517Z,93.90
2019-05-22T06:35:39.834Z,94.00
2019-05-22T06:38:38.930Z,94.00
2019-05-22T06:41:09.946Z,94.20
2019-05-22T06:43:43.045Z,94.00
2019-05-22T06:46:15.764Z,94.80
2019-05-22T06:48:46.381Z,94.20
2019-05-22T06:51:19.460Z,94.50
2019-05-22T06:53:48.124Z,94.80
2019-05-22T06:56:18.376Z,94.40
2019-05-22T06:58:48.303Z,94.40
2019-05-22T07:01:19.319Z,94.40
2019-05-22T07:03:49.454Z,94.50
2019-05-22T07:06:19.780Z,94.30
2019-05-22T07:08:50.121Z,94.20
2019-05-22T07:11:20.510Z,94.60
2019-05-22T07:13:51.905Z,94.40
2019-05-22T07:16:22.169Z,94.40
2019-05-22T07:18:52.898Z,94.20
2019-05-22T07:21:33.667Z,94.20
2019-05-22T07:23:55.946Z,94.30
2019-05-22T07:26:26.391Z,94.30
2019-05-22T07:29:00.766Z,94.40
2019-05-22T07:31:28.544Z,94.60
2019-05-22T07:33:58.733Z,94.50
2019-05-22T07:36:30.853Z,94.30
2019-05-22T07:39:01.734Z,94.20
2019-05-22T07:41:32.099Z,93.90
2019-05-22T07:44:02.122Z,93.90
2019-05-22T07:46:32.496Z,93.70
2019-05-22T07:49:02.530Z,93.80
2019-05-22T07:51:33.488Z,94.30
2019-05-22T07:54:03.779Z,94.30
2019-05-22T07:56:34.122Z,94.10
2019-05-22T07:59:04.940Z,94.30
2019-05-22T08:01:35.695Z,94.10
2019-05-22T08:04:06.376Z,94.00
2019-05-22T08:06:37.134Z,93.90
2019-05-22T08:09:09.433Z,94.20
2019-05-22T08:11:39.665Z,93.80
2019-05-22T08:14:11.414Z,93.80
2019-05-22T08:16:42.010Z,93.90
2019-05-22T08:19:12.157Z,94.00
2019-05-22T08:21:43.120Z,94.00
2019-05-22T08:24:13.370Z,93.80
2019-05-22T08:26:53.793Z,93.70
2019-05-22T08:29:15.632Z,93.50
2019-05-22T08:31:47.126Z,93.50
2019-05-22T08:34:17.342Z,93.40
2019-05-22T08:36:49.398Z,93.20
2019-05-22T08:39:20.630Z,93.30
2019-05-22T08:41:51.319Z,93.30
2019-05-22T08:44:21.465Z,93.90
2019-05-22T08:46:52.390Z,93.40
2019-05-22T08:49:23.219Z,93.50
2019-05-22T08:51:54.209Z,93.40
2019-05-22T08:54:24.400Z,93.30
2019-05-22T08:56:54.905Z,93.40
2019-05-22T08:59:25.031Z,93.30
2019-05-22T09:01:55.837Z,93.40
2019-05-22T09:04:26.931Z,93.50
2019-05-22T09:06:56.961Z,93.50
2019-05-22T09:09:27.087Z,93.50
2019-05-22T09:11:57.316Z,93.50
2019-05-22T09:14:28.263Z,93.60
2019-05-22T09:16:58.451Z,93.50
2019-05-22T09:19:28.490Z,93.20
2019-05-22T09:21:58.922Z,93.10
2019-05-22T09:24:30.614Z,93.10
2019-05-22T09:27:02.900Z,93.30
2019-05-22T09:29:32.470Z,93.30
2019-05-22T09:32:02.484Z,92.90
2019-05-22T09:34:33.061Z,92.80
2019-05-22T09:37:03.177Z,92.70
2019-05-22T09:39:33.258Z,92.80
2019-05-22T09:42:03.241Z,92.50
2019-05-22T09:44:33.471Z,92.50
2019-05-22T09:47:04.025Z,92.40
2019-05-22T09:49:34.041Z,92.40
2019-05-22T09:52:07.898Z,92.60
2019-05-22T09:54:38.817Z,92.30
2019-05-22T09:57:09.198Z,92.40
2019-05-22T09:59:39.240Z,92.40
2019-05-22T10:02:09.936Z,92.00
2019-05-22T10:04:39.901Z,92.10
2019-05-22T10:07:10.396Z,91.90
2019-05-22T10:09:40.375Z,91.90
2019-05-22T10:12:11.110Z,92.00
2019-05-22T10:14:41.684Z,92.00
2019-05-22T10:17:13.906Z,92.00
2019-05-22T10:19:43.938Z,91.80
2019-05-22T10:22:15.804Z,91.80
2019-05-22T10:24:50.184Z,91.70
2019-05-22T10:27:19.066Z,91.70
2019-05-22T10:29:50.895Z,92.00
2019-05-22T10:32:20.847Z,92.20
2019-05-22T10:34:51.172Z,92.00
2019-05-22T10:37:21.352Z,92.10
2019-05-22T10:39:51.526Z,92.10
2019-05-22T10:42:22.178Z,92.00
2019-05-22T10:44:52.367Z,91.90
2019-05-22T10:47:23.122Z,92.10
2019-05-22T10:49:53.249Z,92.00
2019-05-22T10:52:24.159Z,92.00
2019-05-22T10:54:56.094Z,91.90
2019-05-22T10:57:25.951Z,92.00
2019-05-22T10:59:56.269Z,91.80
2019-05-22T11:02:26.679Z,91.70
2019-05-22T11:04:58.439Z,91.80
2019-05-22T11:07:28.877Z,91.50
2019-05-22T11:09:59.190Z,91.50
2019-05-22T11:12:29.233Z,91.40
2019-05-22T11:15:00.268Z,91.40
2019-05-22T11:17:30.291Z,91.50
2019-05-22T11:20:00.607Z,91.60
2019-05-22T11:22:30.626Z,91.60
2019-05-22T11:25:00.600Z,91.40
2019-05-22T11:27:31.111Z,91.60
2019-05-22T11:30:01.391Z,91.50
2019-05-22T11:32:33.698Z,91.60
2019-05-22T11:35:05.818Z,91.50
2019-05-22T11:37:37.011Z,91.50
2019-05-22T11:40:08.641Z,91.40
2019-05-22T11:42:39.077Z,91.50
2019-05-22T11:45:12.144Z,91.40
2019-05-22T11:47:43.400Z,91.40
2019-05-22T11:50:15.372Z,91.30
2019-05-22T11:52:46.153Z,91.00
2019-05-22T11:55:17.552Z,91.00
2019-05-22T11:57:47.941Z,91.20
2019-05-22T12:00:23.129Z,91.20
2019-05-22T12:02:53.368Z,90.80
2019-05-22T12:05:24.258Z,90.90
2019-05-22T12:07:54.536Z,91.00
2019-05-22T12:10:25.783Z,91.10
2019-05-22T12:12:56.278Z,91.20
2019-05-22T12:15:28.616Z,91.20
2019-05-22T12:17:59.756Z,91.30
2019-05-22T12:20:30.749Z,90.70
2019-05-22T12:23:00.881Z,90.70
2019-05-22T12:25:32.337Z,90.60
2019-05-22T12:28:03.202Z,90.20
2019-05-22T12:30:33.348Z,90.40
2019-05-22T12:33:12.592Z,90.40
2019-05-22T12:35:37.117Z,90.50
2019-05-22T12:38:07.935Z,90.20
2019-05-22T12:40:38.281Z,90.20
2019-05-22T12:43:09.374Z,90.40
2019-05-22T12:45:39.417Z,90.60
2019-05-22T12:48:10.311Z,90.60
2019-05-22T12:50:40.582Z,90.90
2019-05-22T12:53:12.578Z,90.60
2019-05-22T12:55:43.004Z,90.70
2019-05-22T12:58:13.272Z,90.50
2019-05-22T13:00:43.824Z,90.50
2019-05-22T13:03:15.617Z,90.60
2019-05-22T13:05:47.048Z,90.40
2019-05-22T13:08:17.330Z,90.60
2019-05-22T13:10:47.597Z,90.50
2019-05-22T13:13:17.954Z,90.60
2019-05-22T13:15:48.267Z,90.30
2019-05-22T13:18:20.685Z,90.30
2019-05-22T13:20:53.730Z,90.40
2019-05-22T13:23:27.425Z,90.50
2019-05-22T13:25:58.112Z,90.90
2019-05-22T13:28:30.511Z,91.60
2019-05-22T13:31:00.785Z,91.00
2019-05-22T13:33:31.686Z,91.10
2019-05-22T13:36:02.994Z,91.30
2019-05-22T13:38:33.517Z,91.10
2019-05-22T13:41:04.419Z,91.40
2019-05-22T13:43:35.081Z,91.40
2019-05-22T13:46:06.133Z,91.60
2019-05-22T13:48:36.692Z,92.00
2019-05-22T13:51:08.534Z,91.70
2019-05-22T13:53:39.426Z,92.10
2019-05-22T13:56:11.251Z,91.80
2019-05-22T13:58:42.345Z,91.80
2019-05-22T14:01:12.938Z,92.00
2019-05-22T14:03:43.838Z,91.90
2019-05-22T14:06:14.338Z,91.60
2019-05-22T14:08:45.100Z,91.50
2019-05-22T14:11:16.330Z,91.80
2019-05-22T14:13:47.699Z,91.30
2019-05-22T14:16:18.762Z,91.70
2019-05-22T14:18:49.404Z,91.80
2019-05-22T14:21:20.791Z,91.80
2019-05-22T14:23:51.416Z,91.80
2019-05-22T14:26:21.942Z,91.60
2019-05-22T14:28:52.686Z,91.50
2019-05-22T14:31:23.210Z,91.60
2019-05-22T14:33:55.711Z,91.40
2019-05-22T14:36:27.038Z,91.40
2019-05-22T14:38:59.596Z,91.40
2019-05-22T14:41:30.361Z,91.50
2019-05-22T14:44:00.912Z,91.40
2019-05-22T14:46:31.628Z,91.50
2019-05-22T14:49:02.535Z,91.20
2019-05-22T14:51:35.142Z,91.50
2019-05-22T14:54:08.349Z,91.30
2019-05-22T14:56:39.141Z,91.00
2019-05-22T14:59:09.670Z,91.40
2019-05-22T15:01:40.382Z,91.40
2019-05-22T15:04:11.131Z,91.40
2019-05-22T15:06:41.780Z,91.60
2019-05-22T15:09:12.810Z,91.80
2019-05-22T15:11:43.438Z,91.70
2019-05-22T15:14:17.132Z,91.70
2019-05-22T15:16:47.796Z,91.70
2019-05-22T15:19:18.576Z,91.70
2019-05-22T15:21:49.332Z,91.50
2019-05-22T15:24:20.063Z,91.50
2019-05-22T15:26:51.103Z,91.40
2019-05-22T15:29:21.841Z,91.40
2019-05-22T15:31:52.672Z,91.50
2019-05-22T15:34:23.625Z,91.50
2019-05-22T15:36:56.083Z,91.60
2019-05-22T15:39:29.657Z,91.50
2019-05-22T15:42:04.033Z,91.60
2019-05-22T15:44:36.788Z,91.50
2019-05-22T15:47:09.663Z,91.60
2019-05-22T15:49:43.470Z,91.50
2019-05-22T15:52:16.671Z,91.50
2019-05-22T15:54:51.444Z,91.50
2019-05-22T15:57:24.270Z,91.40
2019-05-22T16:00:00.966Z,91.40
2019-05-22T16:02:34.184Z,91.40
2019-05-22T16:05:07.221Z,91.40
2019-05-22T16:07:42.975Z,91.40
2019-05-22T16:10:15.957Z,91.50
2019-05-22T16:12:48.818Z,91.40
2019-05-22T16:15:22.494Z,91.40
2019-05-22T16:18:10.554Z,91.40
2019-05-22T16:20:28.718Z,91.40
2019-05-22T16:23:00.100Z,91.60
2019-05-22T16:25:33.716Z,91.40
2019-05-22T16:28:08.503Z,91.50
2019-05-22T16:30:42.206Z,91.30
2019-05-22T16:33:16.947Z,91.50
2019-05-22T16:35:50.550Z,91.30
2019-05-22T16:38:22.338Z,91.50
2019-05-22T16:40:55.562Z,91.70
2019-05-22T16:43:47.285Z,91.90
2019-05-22T16:46:05.649Z,92.10
2019-05-22T16:48:41.286Z,92.00
2019-05-22T16:51:15.710Z,92.10
2019-05-22T16:53:51.908Z,92.10
2019-05-22T16:56:23.771Z,92.30
2019-05-22T16:58:56.193Z,92.20
2019-05-22T17:01:27.815Z,92.20
2019-05-22T17:04:01.689Z,92.10
2019-05-22T17:06:34.691Z,92.40
2019-05-22T17:09:10.093Z,92.30
2019-05-22T17:11:42.636Z,92.40
2019-05-22T17:14:16.788Z,92.20
2019-05-22T17:16:47.864Z,92.30
2019-05-22T17:19:27.063Z,92.40
2019-05-22T17:21:51.578Z,92.20
2019-05-22T17:24:24.055Z,92.30
2019-05-22T17:27:01.059Z,92.20
2019-05-22T17:29:37.150Z,92.20
2019-05-22T17:32:11.938Z,92.40
2019-05-22T17:34:48.139Z,92.30
2019-05-22T17:37:23.835Z,92.40
2019-05-22T17:39:59.047Z,92.60
2019-05-22T17:42:31.920Z,92.80
2019-05-22T17:45:05.719Z,92.90
2019-05-22T17:47:37.974Z,93.10
2019-05-22T17:50:26.672Z,93.00
2019-05-22T17:52:58.965Z,92.90
2019-05-22T17:55:31.482Z,93.00
2019-05-22T17:58:03.139Z,93.00
2019-05-22T18:00:36.018Z,93.10
2019-05-22T18:03:07.219Z,93.40
2019-05-22T18:05:39.991Z,93.50
2019-05-22T18:08:14.870Z,93.70
2019-05-22T18:10:50.032Z,93.60
2019-05-22T18:13:23.929Z,93.50
2019-05-22T18:15:54.981Z,93.60
2019-05-22T18:18:26.174Z,93.30
2019-05-22T18:20:59.872Z,93.20
2019-05-22T18:23:32.581Z,93.40
2019-05-22T18:26:03.381Z,93.40
2019-05-22T18:28:38.670Z,93.20
2019-05-22T18:31:15.162Z,93.20
2019-05-22T18:33:47.576Z,92.90
2019-05-22T18:36:20.353Z,93.00
2019-05-22T18:38:52.687Z,93.00
2019-05-22T18:41:26.115Z,93.20
2019-05-22T18:44:00.798Z,93.10
2019-05-22T18:46:34.381Z,93.00
2019-05-22T18:49:09.741Z,92.90
2019-05-22T18:51:42.591Z,93.00
2019-05-22T18:54:15.605Z,93.00
2019-05-22T18:56:50.855Z,93.00
2019-05-22T18:59:23.169Z,92.90
2019-05-22T19:01:54.895Z,92.90
2019-05-22T19:04:25.646Z,93.00
2019-05-22T19:06:56.998Z,92.90
2019-05-22T19:09:29.470Z,92.80
2019-05-22T19:12:05.093Z,93.00
2019-05-22T19:14:37.612Z,93.20
2019-05-22T19:17:10.037Z,93.00
2019-05-22T19:19:45.074Z,93.10
2019-05-22T19:22:16.194Z,92.80
2019-05-22T19:24:48.207Z,92.90
2019-05-22T19:27:20.450Z,92.60
2019-05-22T19:29:52.078Z,92.60
2019-05-22T19:32:23.680Z,92.60
2019-05-22T19:34:54.355Z,92.40
2019-05-22T19:37:25.293Z,92.20
2019-05-22T19:39:59.004Z,92.40
2019-05-22T19:42:30.052Z,92.50
2019-05-22T19:45:03.898Z,92.20
2019-05-22T19:47:37.573Z,92.30
2019-05-22T19:50:22.307Z,92.30
2019-05-22T19:52:44.499Z,92.20
2019-05-22T19:55:17.525Z,92.00
2019-05-22T19:57:48.913Z,92.20
2019-05-22T20:00:20.291Z,91.90
2019-05-22T20:02:51.365Z,92.20
2019-05-22T20:05:24.458Z,92.20
2019-05-22T20:07:59.683Z,92.10
2019-05-22T20:10:32.499Z,92.10
2019-05-22T20:13:06.218Z,92.00
2019-05-22T20:15:38.118Z,92.20
2019-05-22T20:18:10.759Z,92.20
2019-05-22T20:20:42.114Z,92.20
2019-05-22T20:23:13.603Z,92.10
2019-05-22T20:25:45.833Z,92.00
2019-05-22T20:28:17.842Z,92.40
2019-05-22T20:30:52.630Z,92.00
2019-05-22T20:33:26.890Z,92.10
2019-05-22T20:35:56.242Z,91.90
2019-05-22T20:38:28.437Z,92.00
2019-05-22T20:40:59.347Z,91.80
2019-05-22T20:43:33.162Z,91.80
2019-05-22T20:46:05.521Z,91.70
2019-05-22T20:48:37.342Z,91.80
2019-05-22T20:51:09.882Z,92.00
2019-05-22T20:53:53.497Z,91.60
2019-05-22T20:56:14.283Z,91.10
2019-05-22T20:58:45.441Z,91.30
2019-05-22T21:01:18.017Z,91.30
2019-05-22T21:03:49.387Z,91.40
2019-05-22T21:06:25.306Z,91.20
2019-05-22T21:08:55.975Z,91.20
2019-05-22T21:11:29.747Z,91.20
2019-05-22T21:14:00.598Z,90.90
2019-05-22T21:16:32.030Z,90.90
2019-05-22T21:19:02.804Z,90.80
2019-05-22T21:21:34.628Z,90.50
2019-05-22T21:24:11.606Z,90.40
2019-05-22T21:26:39.057Z,90.20
2019-05-22T21:29:10.336Z,90.20
